sensor_id;sensor_type;location;lat;lon;timestamp;pressure;altitude;pressure_sealevel;temperature;humidity
78932;BME280;68331;53.362;55.932;2023-12-20T00:01:40;99921.69;;;-1.88;67.54
78932;BME280;68331;53.362;55.932;2023-12-20T00:04:06;99916.34;;;-1.96;68.10
78932;BME280;68331;53.362;55.932;2023-12-20T00:06:32;99913.72;;;-1.97;68.04
78932;BME280;68331;53.362;55.932;2023-12-20T00:08:58;99910.28;;;-1.96;67.98
78932;BME280;68331;53.362;55.932;2023-12-20T00:11:24;99881.50;;;-2.15;68.39
78932;BME280;68331;53.362;55.932;2023-12-20T00:13:50;99913.56;;;-2.06;68.57
78932;BME280;68331;53.362;55.932;2023-12-20T00:16:16;99888.50;;;-2.09;68.74
78932;BME280;68331;53.362;55.932;2023-12-20T00:18:42;99864.16;;;-2.20;69.02
78932;BME280;68331;53.362;55.932;2023-12-20T00:21:08;99867.75;;;-2.14;69.17
78932;BME280;68331;53.362;55.932;2023-12-20T00:23:34;99858.16;;;-2.19;69.23
78932;BME280;68331;53.362;55.932;2023-12-20T00:26:00;99857.56;;;-2.06;69.14
78932;BME280;68331;53.362;55.932;2023-12-20T00:28:25;99863.63;;;-2.04;69.04
78932;BME280;68331;53.362;55.932;2023-12-20T00:30:51;99864.50;;;-2.02;68.97
78932;BME280;68331;53.362;55.932;2023-12-20T00:33:17;99875.66;;;-2.04;68.92
78932;BME280;68331;53.362;55.932;2023-12-20T00:35:43;99882.47;;;-2.08;69.14
78932;BME280;68331;53.362;55.932;2023-12-20T00:38:09;99888.66;;;-2.01;69.44
78932;BME280;68331;53.362;55.932;2023-12-20T00:40:35;99872.22;;;-2.05;69.06
78932;BME280;68331;53.362;55.932;2023-12-20T00:43:01;99880.81;;;-2.06;69.37
78932;BME280;68331;53.362;55.932;2023-12-20T00:45:27;99836.50;;;-2.26;69.50
78932;BME280;68331;53.362;55.932;2023-12-20T00:47:53;99859.22;;;-2.08;68.79
78932;BME280;68331;53.362;55.932;2023-12-20T00:50:18;99868.81;;;-2.02;69.05
78932;BME280;68331;53.362;55.932;2023-12-20T00:52:44;99804.47;;;-2.34;68.97
78932;BME280;68331;53.362;55.932;2023-12-20T00:55:11;99856.88;;;-1.96;69.21
78932;BME280;68331;53.362;55.932;2023-12-20T00:57:37;99868.91;;;-1.98;68.95
78932;BME280;68331;53.362;55.932;2023-12-20T01:00:03;99877.59;;;-1.94;68.50
78932;BME280;68331;53.362;55.932;2023-12-20T01:02:30;99865.31;;;-2.06;68.57
78932;BME280;68331;53.362;55.932;2023-12-20T01:04:56;99850.59;;;-2.08;68.98
78932;BME280;68331;53.362;55.932;2023-12-20T01:07:22;99862.72;;;-2.04;68.91
78932;BME280;68331;53.362;55.932;2023-12-20T01:09:48;99827.16;;;-2.19;69.38
78932;BME280;68331;53.362;55.932;2023-12-20T01:12:14;99811.41;;;-2.30;69.41
78932;BME280;68331;53.362;55.932;2023-12-20T01:14:40;99818.59;;;-2.17;69.56
78932;BME280;68331;53.362;55.932;2023-12-20T01:17:06;99828.16;;;-2.11;69.22
78932;BME280;68331;53.362;55.932;2023-12-20T01:19:32;99813.41;;;-2.17;69.57
78932;BME280;68331;53.362;55.932;2023-12-20T01:21:58;99805.63;;;-2.18;69.93
78932;BME280;68331;53.362;55.932;2023-12-20T01:24:23;99803.94;;;-2.16;69.88
78932;BME280;68331;53.362;55.932;2023-12-20T01:26:49;99788.34;;;-2.21;70.21
78932;BME280;68331;53.362;55.932;2023-12-20T01:29:15;99795.22;;;-2.23;70.54
78932;BME280;68331;53.362;55.932;2023-12-20T01:31:41;99787.53;;;-2.20;70.34
78932;BME280;68331;53.362;55.932;2023-12-20T01:34:07;99770.09;;;-2.30;70.78
78932;BME280;68331;53.362;55.932;2023-12-20T01:36:33;99778.09;;;-2.16;70.76
78932;BME280;68331;53.362;55.932;2023-12-20T01:38:59;99778.97;;;-2.16;70.81
78932;BME280;68331;53.362;55.932;2023-12-20T01:41:25;99759.06;;;-2.21;70.86
78932;BME280;68331;53.362;55.932;2023-12-20T01:43:51;99762.50;;;-2.22;71.50
78932;BME280;68331;53.362;55.932;2023-12-20T01:46:19;99772.09;;;-2.15;71.45
78932;BME280;68331;53.362;55.932;2023-12-20T01:48:47;99775.53;;;-2.15;71.59
78932;BME280;68331;53.362;55.932;2023-12-20T01:51:14;99783.19;;;-2.21;71.82
78932;BME280;68331;53.362;55.932;2023-12-20T01:53:40;99785.91;;;-2.13;71.77
78932;BME280;68331;53.362;55.932;2023-12-20T01:56:07;99780.88;;;-2.05;71.87
78932;BME280;68331;53.362;55.932;2023-12-20T01:58:34;99773.13;;;-2.05;72.01
78932;BME280;68331;53.362;55.932;2023-12-20T02:01:03;99729.97;;;-2.09;72.22
78932;BME280;68331;53.362;55.932;2023-12-20T02:03:29;99714.53;;;-2.06;72.86
78932;BME280;68331;53.362;55.932;2023-12-20T02:05:55;99692.56;;;-2.30;73.09
78932;BME280;68331;53.362;55.932;2023-12-20T02:08:21;99715.22;;;-2.17;73.50
78932;BME280;68331;53.362;55.932;2023-12-20T02:10:47;99692.66;;;-2.25;73.21
78932;BME280;68331;53.362;55.932;2023-12-20T02:13:13;99730.03;;;-2.06;73.47
78932;BME280;68331;53.362;55.932;2023-12-20T02:15:39;99743.94;;;-1.98;73.30
78932;BME280;68331;53.362;55.932;2023-12-20T02:18:07;99721.53;;;-2.01;73.45
78932;BME280;68331;53.362;55.932;2023-12-20T02:20:33;99743.97;;;-1.97;73.75
78932;BME280;68331;53.362;55.932;2023-12-20T02:22:59;99711.13;;;-2.02;73.32
78932;BME280;68331;53.362;55.932;2023-12-20T02:25:24;99728.63;;;-1.88;73.56
78932;BME280;68331;53.362;55.932;2023-12-20T02:27:50;99724.31;;;-1.85;73.30
78932;BME280;68331;53.362;55.932;2023-12-20T02:30:16;99701.84;;;-1.91;73.59
78932;BME280;68331;53.362;55.932;2023-12-20T02:32:42;99720.00;;;-1.87;73.27
78932;BME280;68331;53.362;55.932;2023-12-20T02:35:08;99717.31;;;-1.93;73.89
78932;BME280;68331;53.362;55.932;2023-12-20T02:37:34;99703.63;;;-1.87;73.58
78932;BME280;68331;53.362;55.932;2023-12-20T02:40:00;99726.00;;;-1.89;74.44
78932;BME280;68331;53.362;55.932;2023-12-20T02:42:26;99720.88;;;-1.88;73.91
78932;BME280;68331;53.362;55.932;2023-12-20T02:44:52;99704.56;;;-1.82;73.98
78932;BME280;68331;53.362;55.932;2023-12-20T02:47:18;99704.59;;;-1.80;74.01
78932;BME280;68331;53.362;55.932;2023-12-20T02:49:44;99682.19;;;-1.81;74.25
78932;BME280;68331;53.362;55.932;2023-12-20T02:52:10;99663.75;;;-2.03;74.56
78932;BME280;68331;53.362;55.932;2023-12-20T02:54:36;99698.50;;;-1.84;74.48
78932;BME280;68331;53.362;55.932;2023-12-20T02:57:02;99691.63;;;-1.82;74.38
78932;BME280;68331;53.362;55.932;2023-12-20T02:59:28;99638.66;;;-2.08;74.80
78932;BME280;68331;53.362;55.932;2023-12-20T03:01:54;99676.16;;;-1.79;75.06
78932;BME280;68331;53.362;55.932;2023-12-20T03:04:20;99661.31;;;-1.92;75.17
78932;BME280;68331;53.362;55.932;2023-12-20T03:06:46;99675.34;;;-1.76;75.48
78932;BME280;68331;53.362;55.932;2023-12-20T03:09:12;99662.47;;;-1.75;75.29
78932;BME280;68331;53.362;55.932;2023-12-20T03:11:37;99649.44;;;-1.81;75.22
78932;BME280;68331;53.362;55.932;2023-12-20T03:14:03;99665.00;;;-1.78;75.12
78932;BME280;68331;53.362;55.932;2023-12-20T03:16:29;99643.41;;;-1.80;75.12
78932;BME280;68331;53.362;55.932;2023-12-20T03:18:56;99646.03;;;-1.78;75.39
78932;BME280;68331;53.362;55.932;2023-12-20T03:21:22;99640.72;;;-1.88;75.64
78932;BME280;68331;53.362;55.932;2023-12-20T03:23:48;99612.16;;;-1.95;75.25
78932;BME280;68331;53.362;55.932;2023-12-20T03:26:14;99634.00;;;-1.75;75.49
78932;BME280;68331;53.362;55.932;2023-12-20T03:28:40;99622.91;;;-1.68;75.59
78932;BME280;68331;53.362;55.932;2023-12-20T03:31:06;99583.66;;;-2.00;75.69
78932;BME280;68331;53.362;55.932;2023-12-20T03:33:32;99616.78;;;-1.74;75.97
78932;BME280;68331;53.362;55.932;2023-12-20T03:35:58;99584.88;;;-1.73;76.09
78932;BME280;68331;53.362;55.932;2023-12-20T03:38:23;99559.53;;;-2.00;76.30
78932;BME280;68331;53.362;55.932;2023-12-20T03:40:50;99605.53;;;-1.78;76.27
78932;BME280;68331;53.362;55.932;2023-12-20T03:43:16;99612.47;;;-1.74;76.36
78932;BME280;68331;53.362;55.932;2023-12-20T03:45:42;99587.44;;;-1.78;76.26
78932;BME280;68331;53.362;55.932;2023-12-20T03:48:08;99594.41;;;-1.69;76.26
78932;BME280;68331;53.362;55.932;2023-12-20T03:50:35;99615.09;;;-1.71;76.47
78932;BME280;68331;53.362;55.932;2023-12-20T03:53:01;99599.66;;;-1.63;76.37
78932;BME280;68331;53.362;55.932;2023-12-20T03:55:27;99590.97;;;-1.71;76.40
78932;BME280;68331;53.362;55.932;2023-12-20T03:57:53;99616.09;;;-1.61;76.71
78932;BME280;68331;53.362;55.932;2023-12-20T04:00:19;99602.28;;;-1.61;76.52
78932;BME280;68331;53.362;55.932;2023-12-20T04:02:45;99603.09;;;-1.66;76.83
78932;BME280;68331;53.362;55.932;2023-12-20T04:05:11;99622.13;;;-1.62;76.82
78932;BME280;68331;53.362;55.932;2023-12-20T04:07:38;99636.81;;;-1.56;77.18
78932;BME280;68331;53.362;55.932;2023-12-20T04:10:04;99606.56;;;-1.64;77.07
78932;BME280;68331;53.362;55.932;2023-12-20T04:12:30;99607.47;;;-1.61;77.35
78932;BME280;68331;53.362;55.932;2023-12-20T04:14:57;99605.81;;;-1.53;77.32
78932;BME280;68331;53.362;55.932;2023-12-20T04:17:23;99604.97;;;-1.54;77.70
78932;BME280;68331;53.362;55.932;2023-12-20T04:19:49;99596.31;;;-1.57;78.40
78932;BME280;68331;53.362;55.932;2023-12-20T04:22:16;99616.19;;;-1.53;78.46
78932;BME280;68331;53.362;55.932;2023-12-20T04:24:42;99617.94;;;-1.51;79.09
78932;BME280;68331;53.362;55.932;2023-12-20T04:27:08;99608.56;;;-1.43;79.16
78932;BME280;68331;53.362;55.932;2023-12-20T04:29:34;99606.81;;;-1.44;79.43
78932;BME280;68331;53.362;55.932;2023-12-20T04:32:00;99624.97;;;-1.41;78.90
78932;BME280;68331;53.362;55.932;2023-12-20T04:34:26;99613.75;;;-1.41;79.33
78932;BME280;68331;53.362;55.932;2023-12-20T04:36:52;99629.41;;;-1.32;79.49
78932;BME280;68331;53.362;55.932;2023-12-20T04:39:18;99602.66;;;-1.34;79.38
78932;BME280;68331;53.362;55.932;2023-12-20T04:41:44;99587.03;;;-1.40;79.32
78932;BME280;68331;53.362;55.932;2023-12-20T04:44:11;99601.88;;;-1.25;79.25
78932;BME280;68331;53.362;55.932;2023-12-20T04:46:37;99592.34;;;-1.28;79.64
78932;BME280;68331;53.362;55.932;2023-12-20T04:49:03;99604.41;;;-1.30;80.10
78932;BME280;68331;53.362;55.932;2023-12-20T04:51:29;99547.22;;;-1.53;80.64
78932;BME280;68331;53.362;55.932;2023-12-20T04:53:55;99585.44;;;-1.30;81.32
78932;BME280;68331;53.362;55.932;2023-12-20T04:56:20;99587.09;;;-1.35;82.33
78932;BME280;68331;53.362;55.932;2023-12-20T04:58:46;99525.59;;;-1.59;82.71
78932;BME280;68331;53.362;55.932;2023-12-20T06:31:06;99509.78;;;-1.03;86.81
78932;BME280;68331;53.362;55.932;2023-12-20T06:33:33;99487.34;;;-1.04;86.83
78932;BME280;68331;53.362;55.932;2023-12-20T06:35:59;99502.94;;;-0.98;86.41
78932;BME280;68331;53.362;55.932;2023-12-20T06:38:25;99504.66;;;-0.97;86.46
78932;BME280;68331;53.362;55.932;2023-12-20T06:40:50;99509.91;;;-0.86;86.44
78932;BME280;68331;53.362;55.932;2023-12-20T06:43:17;99496.97;;;-0.86;86.06
78932;BME280;68331;53.362;55.932;2023-12-20T06:45:42;99506.41;;;-0.93;86.61
78932;BME280;68331;53.362;55.932;2023-12-20T06:48:09;99477.00;;;-1.04;86.36
78932;BME280;68331;53.362;55.932;2023-12-20T06:50:36;99500.41;;;-0.90;86.31
78932;BME280;68331;53.362;55.932;2023-12-20T06:53:06;99493.56;;;-0.85;86.54
78932;BME280;68331;53.362;55.932;2023-12-20T06:55:35;99494.41;;;-0.85;86.45
78932;BME280;68331;53.362;55.932;2023-12-20T06:58:02;99477.97;;;-0.87;85.58
78932;BME280;68331;53.362;55.932;2023-12-20T07:00:28;99470.19;;;-0.90;86.25
78932;BME280;68331;53.362;55.932;2023-12-20T07:02:54;99462.47;;;-0.84;86.16
78932;BME280;68331;53.362;55.932;2023-12-20T07:05:20;99473.69;;;-0.83;86.44
78932;BME280;68331;53.362;55.932;2023-12-20T07:07:47;99452.97;;;-0.83;86.04
78932;BME280;68331;53.362;55.932;2023-12-20T07:10:16;99460.78;;;-0.77;86.26
78932;BME280;68331;53.362;55.932;2023-12-20T07:12:43;99476.34;;;-0.77;86.91
78932;BME280;68331;53.362;55.932;2023-12-20T07:15:09;99470.34;;;-0.73;86.37
78932;BME280;68331;53.362;55.932;2023-12-20T07:17:35;99453.94;;;-0.72;86.78
78932;BME280;68331;53.362;55.932;2023-12-20T07:20:01;99480.75;;;-0.65;86.77
78932;BME280;68331;53.362;55.932;2023-12-20T07:22:30;99466.94;;;-0.66;86.25
78932;BME280;68331;53.362;55.932;2023-12-20T07:24:59;99466.09;;;-0.62;86.63
78932;BME280;68331;53.362;55.932;2023-12-20T07:27:26;99443.66;;;-0.63;86.17
78932;BME280;68331;53.362;55.932;2023-12-20T07:29:52;99427.94;;;-0.87;85.73
78932;BME280;68331;53.362;55.932;2023-12-20T07:32:18;99448.75;;;-0.71;86.42
78932;BME280;68331;53.362;55.932;2023-12-20T07:34:44;99441.88;;;-0.64;86.73
78932;BME280;68331;53.362;55.932;2023-12-20T07:37:10;99435.00;;;-0.62;86.24
78932;BME280;68331;53.362;55.932;2023-12-20T07:39:41;99435.88;;;-0.61;86.20
78932;BME280;68331;53.362;55.932;2023-12-20T07:42:07;99433.28;;;-0.61;86.09
78932;BME280;68331;53.362;55.932;2023-12-20T07:44:33;99426.41;;;-0.59;86.48
78932;BME280;68331;53.362;55.932;2023-12-20T07:46:59;99424.66;;;-0.60;86.07
78932;BME280;68331;53.362;55.932;2023-12-20T07:49:26;99417.75;;;-0.63;86.08
78932;BME280;68331;53.362;55.932;2023-12-20T07:51:52;99419.47;;;-0.63;86.81
78932;BME280;68331;53.362;55.932;2023-12-20T07:54:18;99428.16;;;-0.54;86.55
78932;BME280;68331;53.362;55.932;2023-12-20T07:56:45;99415.25;;;-0.38;86.38
78932;BME280;68331;53.362;55.932;2023-12-20T07:59:10;99423.94;;;-0.35;85.89
78932;BME280;68331;53.362;55.932;2023-12-20T08:01:36;99412.72;;;-0.31;85.89
78932;BME280;68331;53.362;55.932;2023-12-20T08:04:02;99408.44;;;-0.29;84.90
78932;BME280;68331;53.362;55.932;2023-12-20T08:06:28;99408.44;;;-0.29;85.33
78932;BME280;68331;53.362;55.932;2023-12-20T08:08:54;99388.50;;;-0.36;85.51
78932;BME280;68331;53.362;55.932;2023-12-20T08:11:20;99401.47;;;-0.36;85.22
78932;BME280;68331;53.362;55.932;2023-12-20T08:13:46;99406.69;;;-0.30;84.89
78932;BME280;68331;53.362;55.932;2023-12-20T08:16:12;99405.84;;;-0.27;85.51
78932;BME280;68331;53.362;55.932;2023-12-20T08:18:41;99396.31;;;-0.30;85.46
78932;BME280;68331;53.362;55.932;2023-12-20T08:21:07;99379.06;;;-0.28;85.06
78932;BME280;68331;53.362;55.932;2023-12-20T08:23:34;99386.84;;;-0.20;84.66
78932;BME280;68331;53.362;55.932;2023-12-20T08:26:09;99380.81;;;-0.17;85.07
78932;BME280;68331;53.362;55.932;2023-12-20T08:28:36;99386.88;;;-0.14;84.36
78932;BME280;68331;53.362;55.932;2023-12-20T08:31:02;99385.16;;;-0.15;84.54
78932;BME280;68331;53.362;55.932;2023-12-20T08:33:28;99386.00;;;-0.22;84.36
78932;BME280;68331;53.362;55.932;2023-12-20T08:35:54;99354.84;;;-0.34;85.32
78932;BME280;68331;53.362;55.932;2023-12-20T08:38:20;99381.69;;;-0.17;84.60
78932;BME280;68331;53.362;55.932;2023-12-20T08:40:46;99381.69;;;-0.18;84.88
78932;BME280;68331;53.362;55.932;2023-12-20T08:43:12;99386.00;;;-0.14;84.84
78932;BME280;68331;53.362;55.932;2023-12-20T08:45:38;99386.00;;;-0.19;85.06
78932;BME280;68331;53.362;55.932;2023-12-20T08:48:04;99392.91;;;-0.18;85.54
78932;BME280;68331;53.362;55.932;2023-12-20T08:50:31;99378.25;;;-0.16;85.65
78932;BME280;68331;53.362;55.932;2023-12-20T08:52:56;99391.19;;;-0.10;85.66
78932;BME280;68331;53.362;55.932;2023-12-20T08:55:22;99387.75;;;-0.10;86.05
78932;BME280;68331;53.362;55.932;2023-12-20T08:57:48;99390.34;;;-0.07;85.64
78932;BME280;68331;53.362;55.932;2023-12-20T09:00:15;99390.34;;;-0.07;86.07
78932;BME280;68331;53.362;55.932;2023-12-20T09:02:41;99386.06;;;-0.02;85.31
78932;BME280;68331;53.362;55.932;2023-12-20T09:05:07;99377.41;;;-0.09;85.57
78932;BME280;68331;53.362;55.932;2023-12-20T09:07:33;99375.69;;;-0.05;85.70
78932;BME280;68331;53.362;55.932;2023-12-20T09:09:59;99366.19;;;-0.02;86.12
78932;BME280;68331;53.362;55.932;2023-12-20T09:12:25;99378.28;;;-0.02;85.88
78932;BME280;68331;53.362;55.932;2023-12-20T09:14:51;99345.41;;;-0.12;86.64
78932;BME280;68331;53.362;55.932;2023-12-20T09:17:18;99376.56;;;0.02;85.54
78932;BME280;68331;53.362;55.932;2023-12-20T09:19:45;99361.88;;;0.02;86.71
78932;BME280;68331;53.362;55.932;2023-12-20T09:22:11;99355.81;;;0.03;86.19
78932;BME280;68331;53.362;55.932;2023-12-20T09:24:38;99356.69;;;0.05;86.27
78932;BME280;68331;53.362;55.932;2023-12-20T09:27:06;99346.31;;;0.04;86.07
78932;BME280;68331;53.362;55.932;2023-12-20T09:29:32;99345.47;;;0.08;86.74
78932;BME280;68331;53.362;55.932;2023-12-20T09:31:58;99351.53;;;0.11;86.92
78932;BME280;68331;53.362;55.932;2023-12-20T09:34:24;99351.53;;;0.14;86.50
78932;BME280;68331;53.362;55.932;2023-12-20T09:36:52;99349.81;;;0.16;86.29
78932;BME280;68331;53.362;55.932;2023-12-20T09:39:18;99350.66;;;0.12;85.74
78932;BME280;68331;53.362;55.932;2023-12-20T09:41:45;99352.41;;;0.13;85.69
78932;BME280;68331;53.362;55.932;2023-12-20T09:44:16;99317.78;;;0.05;85.89
78932;BME280;68331;53.362;55.932;2023-12-20T09:46:45;99335.97;;;0.17;85.99
78932;BME280;68331;53.362;55.932;2023-12-20T09:49:12;99327.31;;;0.18;86.18
78932;BME280;68331;53.362;55.932;2023-12-20T09:51:39;99333.38;;;0.20;86.23
78932;BME280;68331;53.362;55.932;2023-12-20T09:54:06;99327.34;;;0.20;86.21
78932;BME280;68331;53.362;55.932;2023-12-20T09:56:33;99313.50;;;0.19;86.46
78932;BME280;68331;53.362;55.932;2023-12-20T09:58:59;99304.84;;;0.11;86.13
78932;BME280;68331;53.362;55.932;2023-12-20T10:01:25;99323.00;;;0.22;86.06
78932;BME280;68331;53.362;55.932;2023-12-20T10:03:54;99319.56;;;0.23;86.93
78932;BME280;68331;53.362;55.932;2023-12-20T10:06:21;99323.00;;;0.25;86.30
78932;BME280;68331;53.362;55.932;2023-12-20T10:08:47;99293.63;;;0.20;86.30
78932;BME280;68331;53.362;55.932;2023-12-20T10:11:13;99323.88;;;0.27;86.70
78932;BME280;68331;53.362;55.932;2023-12-20T10:13:40;99338.59;;;0.30;86.71
78932;BME280;68331;53.362;55.932;2023-12-20T10:16:07;99323.00;;;0.23;86.81
78932;BME280;68331;53.362;55.932;2023-12-20T10:18:33;99340.31;;;0.32;87.07
78932;BME280;68331;53.362;55.932;2023-12-20T10:21:00;99330.78;;;0.31;86.92
78932;BME280;68331;53.362;55.932;2023-12-20T10:23:26;99338.56;;;0.31;87.02
78932;BME280;68331;53.362;55.932;2023-12-20T10:25:59;99340.31;;;0.34;87.19
78932;BME280;68331;53.362;55.932;2023-12-20T10:28:25;99338.59;;;0.39;87.47
78932;BME280;68331;53.362;55.932;2023-12-20T10:30:55;99332.53;;;0.43;87.10
78932;BME280;68331;53.362;55.932;2023-12-20T10:33:27;99342.03;;;0.47;87.58
78932;BME280;68331;53.362;55.932;2023-12-20T10:35:58;99339.47;;;0.52;87.30
78932;BME280;68331;53.362;55.932;2023-12-20T10:38:23;99331.69;;;0.53;86.95
78932;BME280;68331;53.362;55.932;2023-12-20T10:40:56;99348.97;;;0.53;87.16
78932;BME280;68331;53.362;55.932;2023-12-20T10:43:24;99342.94;;;0.55;87.15
78932;BME280;68331;53.362;55.932;2023-12-20T10:45:52;99346.38;;;0.57;87.28
78932;BME280;68331;53.362;55.932;2023-12-20T10:48:18;99296.22;;;0.34;87.38
78932;BME280;68331;53.362;55.932;2023-12-20T10:50:44;99334.28;;;0.65;87.51
78932;BME280;68331;53.362;55.932;2023-12-20T10:53:11;99355.91;;;0.67;87.01
78932;BME280;68331;53.362;55.932;2023-12-20T10:55:39;99364.56;;;0.74;87.58
78932;BME280;68331;53.362;55.932;2023-12-20T10:58:08;99353.31;;;0.75;87.31
78932;BME280;68331;53.362;55.932;2023-12-20T11:00:43;99329.97;;;0.77;87.42
78932;BME280;68331;53.362;55.932;2023-12-20T11:03:11;99342.03;;;0.76;87.84
78932;BME280;68331;53.362;55.932;2023-12-20T11:14:23;99329.09;;;0.75;87.57
78932;BME280;68331;53.362;55.932;2023-12-20T11:17:05;99338.59;;;0.82;87.03
78932;BME280;68331;53.362;55.932;2023-12-20T11:19:31;99336.00;;;0.77;87.49
78932;BME280;68331;53.362;55.932;2023-12-20T11:21:57;99350.72;;;0.84;87.78
78932;BME280;68331;53.362;55.932;2023-12-20T11:24:25;99366.28;;;0.84;86.96
78932;BME280;68331;53.362;55.932;2023-12-20T11:26:55;99354.16;;;0.82;86.59
78932;BME280;68331;53.362;55.932;2023-12-20T11:29:37;99355.03;;;0.78;87.30
78932;BME280;68331;53.362;55.932;2023-12-20T11:32:03;99391.41;;;0.99;87.87
78932;BME280;68331;53.362;55.932;2023-12-20T11:34:51;99364.53;;;0.96;86.89
78932;BME280;68331;53.362;55.932;2023-12-20T11:37:19;99329.94;;;0.84;87.32
78932;BME280;68331;53.362;55.932;2023-12-20T11:39:53;99349.81;;;0.98;86.72
78932;BME280;68331;53.362;55.932;2023-12-20T11:42:20;99369.75;;;1.06;86.83
78932;BME280;68331;53.362;55.932;2023-12-20T11:44:46;99359.34;;;1.09;86.45
78932;BME280;68331;53.362;55.932;2023-12-20T11:47:12;99384.44;;;1.13;85.80
78932;BME280;68331;53.362;55.932;2023-12-20T11:49:39;99389.63;;;1.13;85.61
78932;BME280;68331;53.362;55.932;2023-12-20T11:52:06;99381.00;;;1.10;86.08
78932;BME280;68331;53.362;55.932;2023-12-20T11:54:32;99394.81;;;1.20;86.04
78932;BME280;68331;53.362;55.932;2023-12-20T11:56:58;99400.00;;;1.18;86.08
78932;BME280;68331;53.362;55.932;2023-12-20T11:59:24;99400.03;;;1.23;85.61
78932;BME280;68331;53.362;55.932;2023-12-20T12:01:53;99403.47;;;1.20;85.54
78932;BME280;68331;53.362;55.932;2023-12-20T12:04:21;99398.28;;;1.23;85.19
78932;BME280;68331;53.362;55.932;2023-12-20T12:06:47;99384.44;;;1.16;85.71
78932;BME280;68331;53.362;55.932;2023-12-20T12:09:13;99406.06;;;1.29;85.90
78932;BME280;68331;53.362;55.932;2023-12-20T12:11:39;99400.03;;;1.26;85.72
78932;BME280;68331;53.362;55.932;2023-12-20T12:14:07;99394.81;;;1.30;85.72
78932;BME280;68331;53.362;55.932;2023-12-20T12:16:33;99384.44;;;1.26;85.59
78932;BME280;68331;53.362;55.932;2023-12-20T12:18:59;99392.22;;;1.26;85.08
78932;BME280;68331;53.362;55.932;2023-12-20T12:21:26;99387.91;;;1.19;85.05
78932;BME280;68331;53.362;55.932;2023-12-20T12:23:52;99376.66;;;1.09;85.68
78932;BME280;68331;53.362;55.932;2023-12-20T12:26:18;99374.06;;;1.15;85.97
78932;BME280;68331;53.362;55.932;2023-12-20T12:28:44;99384.44;;;1.26;86.24
78932;BME280;68331;53.362;55.932;2023-12-20T12:31:14;99400.00;;;1.29;86.19
78932;BME280;68331;53.362;55.932;2023-12-20T12:33:41;99392.22;;;1.26;85.72
78932;BME280;68331;53.362;55.932;2023-12-20T12:36:07;99393.97;;;1.19;86.05
78932;BME280;68331;53.362;55.932;2023-12-20T12:38:33;99389.66;;;1.12;86.17
78932;BME280;68331;53.362;55.932;2023-12-20T12:41:00;99410.41;;;1.23;86.14
78932;BME280;68331;53.362;55.932;2023-12-20T12:43:26;99405.22;;;1.20;86.33
78932;BME280;68331;53.362;55.932;2023-12-20T12:45:53;99413.00;;;1.26;86.43
78932;BME280;68331;53.362;55.932;2023-12-20T12:48:19;99401.75;;;1.24;86.53
78932;BME280;68331;53.362;55.932;2023-12-20T12:50:48;99396.56;;;1.16;85.99
78932;BME280;68331;53.362;55.932;2023-12-20T12:53:13;99419.94;;;1.31;86.47
78932;BME280;68331;53.362;55.932;2023-12-20T12:55:39;99416.44;;;1.37;86.04
78932;BME280;68331;53.362;55.932;2023-12-20T12:58:05;99407.81;;;1.35;86.37
78932;BME280;68331;53.362;55.932;2023-12-20T13:00:31;99423.38;;;1.39;85.89
78932;BME280;68331;53.362;55.932;2023-12-20T13:02:57;99424.22;;;1.43;86.08
78932;BME280;68331;53.362;55.932;2023-12-20T13:05:23;99406.06;;;1.34;85.57
78932;BME280;68331;53.362;55.932;2023-12-20T13:07:49;99410.41;;;1.38;85.37
78932;BME280;68331;53.362;55.932;2023-12-20T13:10:15;99422.50;;;1.42;85.51
78932;BME280;68331;53.362;55.932;2023-12-20T13:12:43;99405.19;;;1.38;85.67
78932;BME280;68331;53.362;55.932;2023-12-20T13:15:09;99400.00;;;1.35;85.13
78932;BME280;68331;53.362;55.932;2023-12-20T13:17:35;99431.19;;;1.44;84.67
78932;BME280;68331;53.362;55.932;2023-12-20T13:20:01;99439.81;;;1.43;84.94
78932;BME280;68331;53.362;55.932;2023-12-20T13:22:28;99427.72;;;1.41;84.75
78932;BME280;68331;53.362;55.932;2023-12-20T13:24:54;99427.72;;;1.39;84.41
78932;BME280;68331;53.362;55.932;2023-12-20T13:27:20;99430.28;;;1.47;85.01
78932;BME280;68331;53.362;55.932;2023-12-20T13:29:46;99391.34;;;1.14;84.21
78932;BME280;68331;53.362;55.932;2023-12-20T13:32:12;99442.44;;;1.48;84.89
78932;BME280;68331;53.362;55.932;2023-12-20T13:34:38;99438.09;;;1.47;85.05
78932;BME280;68331;53.362;55.932;2023-12-20T13:37:04;99405.19;;;1.30;84.32
78932;BME280;68331;53.362;55.932;2023-12-20T13:39:30;99430.31;;;1.41;84.39
78932;BME280;68331;53.362;55.932;2023-12-20T13:41:57;99433.78;;;1.47;84.18
78932;BME280;68331;53.362;55.932;2023-12-20T13:44:23;99438.97;;;1.49;83.73
78932;BME280;68331;53.362;55.932;2023-12-20T13:46:49;99442.41;;;1.55;84.22
78932;BME280;68331;53.362;55.932;2023-12-20T13:49:16;99409.53;;;1.37;84.13
78932;BME280;68331;53.362;55.932;2023-12-20T13:51:41;99445.00;;;1.52;84.02
78932;BME280;68331;53.362;55.932;2023-12-20T13:54:07;99436.34;;;1.55;84.01
78932;BME280;68331;53.362;55.932;2023-12-20T13:56:34;99432.88;;;1.57;84.52
78932;BME280;68331;53.362;55.932;2023-12-20T13:59:00;99430.25;;;1.59;83.97
78932;BME280;68331;53.362;55.932;2023-12-20T14:01:26;99445.88;;;1.60;84.11
78932;BME280;68331;53.362;55.932;2023-12-20T14:03:52;99441.50;;;1.69;84.34
78932;BME280;68331;53.362;55.932;2023-12-20T14:06:18;99446.72;;;1.67;84.09
78932;BME280;68331;53.362;55.932;2023-12-20T14:08:44;99436.38;;;1.56;83.80
78932;BME280;68331;53.362;55.932;2023-12-20T14:11:10;99429.41;;;1.58;83.76
78932;BME280;68331;53.362;55.932;2023-12-20T14:13:36;99431.13;;;1.64;83.13
78932;BME280;68331;53.362;55.932;2023-12-20T14:16:02;99432.00;;;1.58;84.00
78932;BME280;68331;53.362;55.932;2023-12-20T14:18:29;99451.06;;;1.65;83.86
78932;BME280;68331;53.362;55.932;2023-12-20T14:20:56;99440.66;;;1.70;84.13
78932;BME280;68331;53.362;55.932;2023-12-20T14:23:22;99446.72;;;1.73;83.80
78932;BME280;68331;53.362;55.932;2023-12-20T14:25:48;99386.13;;;1.45;83.42
78932;BME280;68331;53.362;55.932;2023-12-20T14:28:15;99442.38;;;1.68;83.33
78932;BME280;68331;53.362;55.932;2023-12-20T14:30:41;99447.59;;;1.69;83.38